Time;durP1;ratioP1;P1;durP2;ratioP2;P2;SDS_P1;SDS_P2;PMS_P1;PMS_P2;Temp;Humidity;BMP_temperature;BMP_pressure;BME280_temperature;BME280_humidity;BME280_pressure;Samples;Min_cycle;Max_cycle;Signal;HPM_P1;HPM_P2
2021/08/07 00:02:09;;;;;;;5.60;1.95;;;15.70;99.90;;;;;;5067908;28;20786;-63
2021/08/07 00:04:34;;;;;;;3.03;2.17;;;15.70;99.90;;;;;;5075592;28;20077;-66
2021/08/07 00:07:00;;;;;;;4.70;1.85;;;15.70;99.90;;;;;;5076701;28;20091;-64
2021/08/07 00:09:25;;;;;;;5.05;2.08;;;15.80;99.90;;;;;;5064732;28;20108;-63
2021/08/07 00:11:51;;;;;;;5.63;1.90;;;15.80;99.90;;;;;;5062776;28;20028;-65
2021/08/07 00:14:17;;;;;;;2.83;1.83;;;15.80;99.90;;;;;;5027503;28;20032;-63
2021/08/07 00:16:42;;;;;;;7.72;2.25;;;15.90;99.90;;;;;;5041000;28;20031;-64
2021/08/07 00:19:08;;;;;;;9.18;2.33;;;15.90;99.90;;;;;;5071662;28;20020;-63
2021/08/07 00:21:33;;;;;;;4.85;1.85;;;15.90;99.90;;;;;;5073754;28;20028;-64
2021/08/07 00:23:59;;;;;;;5.93;1.90;;;15.90;99.90;;;;;;5064971;28;20040;-64
2021/08/07 00:26:25;;;;;;;10.57;2.50;;;15.90;99.90;;;;;;5068825;28;20533;-65
2021/08/07 00:28:50;;;;;;;2.55;1.80;;;15.80;99.90;;;;;;5059990;28;20029;-64
2021/08/07 00:31:16;;;;;;;4.40;1.95;;;15.70;99.90;;;;;;5040882;28;20033;-64
2021/08/07 00:33:42;;;;;;;3.90;2.08;;;15.70;99.90;;;;;;5053109;28;20627;-63
2021/08/07 00:36:07;;;;;;;7.65;2.35;;;15.70;99.90;;;;;;5075580;28;20017;-64
2021/08/07 00:38:33;;;;;;;4.30;2.03;;;15.60;99.90;;;;;;5059388;28;20470;-63
2021/08/07 00:40:58;;;;;;;6.38;2.30;;;15.60;99.90;;;;;;5067514;28;20040;-62
2021/08/07 00:43:24;;;;;;;4.53;1.77;;;15.60;99.90;;;;;;5064328;28;20039;-63
2021/08/07 00:45:50;;;;;;;3.38;2.08;;;15.60;99.90;;;;;;5046974;28;20035;-64
2021/08/07 00:48:15;;;;;;;3.30;1.90;;;15.60;99.90;;;;;;5069116;28;20033;-64
2021/08/07 00:50:45;;;;;;;7.70;1.95;;;15.60;99.90;;;;;;5056508;28;20698;-64
2021/08/07 00:53:11;;;;;;;6.20;1.67;;;15.70;99.90;;;;;;5066772;28;20402;-65
2021/08/07 00:55:36;;;;;;;4.63;1.85;;;15.70;99.90;;;;;;5063564;28;20032;-63
2021/08/07 00:58:02;;;;;;;5.35;2.00;;;15.60;99.90;;;;;;5062819;28;20027;-64
2021/08/07 01:00:27;;;;;;;5.43;2.20;;;15.60;99.90;;;;;;5047863;28;20418;-64
2021/08/07 01:03:20;;;;;;;2.65;1.92;;;15.60;99.90;;;;;;5059886;28;20052;-64
2021/08/07 01:06:10;;;;;;;6.70;2.30;;;15.60;99.90;;;;;;5050424;28;20023;-64
2021/08/07 01:08:47;;;;;;;4.22;1.80;;;15.60;99.90;;;;;;5046767;28;20021;-63
2021/08/07 01:11:21;;;;;;;3.97;2.00;;;15.60;99.90;;;;;;5068764;28;20032;-65
2021/08/07 01:13:49;;;;;;;4.38;2.22;;;15.60;99.90;;;;;;5064038;28;20026;-65
2021/08/07 01:16:22;;;;;;;5.65;2.10;;;15.60;99.90;;;;;;5066940;28;20017;-64
2021/08/07 01:18:50;;;;;;;3.58;2.03;;;15.60;99.90;;;;;;5067831;28;20385;-62
2021/08/07 01:21:18;;;;;;;3.53;1.73;;;15.60;99.90;;;;;;5074754;28;20056;-64
2021/08/07 01:23:51;;;;;;;6.05;2.10;;;15.60;99.90;;;;;;5068238;28;20398;-64
2021/08/07 01:26:23;;;;;;;3.03;2.00;;;15.60;99.90;;;;;;5070136;28;20503;-64
2021/08/07 01:28:50;;;;;;;3.55;2.30;;;15.70;99.90;;;;;;5063278;28;20060;-65
2021/08/07 01:31:17;;;;;;;4.00;2.00;;;15.60;99.90;;;;;;5032375;28;20028;-65
2021/08/07 01:33:45;;;;;;;3.60;2.28;;;15.70;99.90;;;;;;5051518;28;20023;-65
2021/08/07 01:36:12;;;;;;;6.57;1.80;;;15.60;99.90;;;;;;5056473;28;20486;-63
2021/08/07 01:38:39;;;;;;;5.45;1.90;;;15.60;99.90;;;;;;5042263;28;20498;-63
2021/08/07 01:41:13;;;;;;;4.93;1.92;;;15.60;99.90;;;;;;5066110;28;20036;-64
2021/08/07 01:43:39;;;;;;;8.90;2.80;;;15.60;99.90;;;;;;5064185;28;20028;-64
2021/08/07 01:46:04;;;;;;;6.50;2.45;;;15.60;99.90;;;;;;5060305;28;20039;-64
2021/08/07 01:48:40;;;;;;;5.53;1.80;;;15.50;99.90;;;;;;5063672;28;20033;-64
2021/08/07 01:51:15;;;;;;;5.32;1.73;;;15.50;99.90;;;;;;5060448;28;20024;-65
2021/08/07 01:53:42;;;;;;;4.82;2.10;;;15.50;99.90;;;;;;5058175;28;20029;-64
2021/08/07 01:56:16;;;;;;;4.57;2.33;;;15.50;99.90;;;;;;5063372;28;20021;-64
2021/08/07 01:58:45;;;;;;;3.03;1.95;;;15.50;99.90;;;;;;5073013;28;20028;-63
2021/08/07 02:01:12;;;;;;;4.43;2.05;;;15.40;99.90;;;;;;5064037;28;20028;-64
2021/08/07 02:03:40;;;;;;;5.53;1.70;;;15.40;99.90;;;;;;5067387;28;20054;-64
2021/08/07 02:06:06;;;;;;;6.88;2.60;;;15.40;99.90;;;;;;5061765;28;20032;-65
2021/08/07 02:08:35;;;;;;;6.72;2.10;;;15.40;99.90;;;;;;5065384;28;20078;-64
2021/08/07 02:11:02;;;;;;;5.20;2.17;;;15.40;99.90;;;;;;5064189;28;20096;-64
2021/08/07 02:13:28;;;;;;;5.88;2.03;;;15.30;99.90;;;;;;5062774;28;20033;-64
2021/08/07 02:15:56;;;;;;;4.03;1.85;;;15.30;99.90;;;;;;5077672;28;20031;-65
2021/08/07 02:18:25;;;;;;;3.38;2.00;;;15.30;99.90;;;;;;5068641;28;20041;-63
2021/08/07 02:20:52;;;;;;;8.30;2.42;;;15.20;99.90;;;;;;5062865;28;20103;-64
2021/08/07 02:23:19;;;;;;;4.30;2.22;;;15.10;99.90;;;;;;5076942;28;20439;-68
2021/08/07 02:25:48;;;;;;;4.85;1.95;;;15.00;99.90;;;;;;5073041;28;20055;-65
2021/08/07 02:28:14;;;;;;;4.95;2.25;;;14.90;99.90;;;;;;5059100;28;20115;-63
2021/08/07 02:30:41;;;;;;;3.90;2.03;;;14.80;99.90;;;;;;5038548;28;20135;-64
2021/08/07 02:33:08;;;;;;;8.90;2.47;;;14.70;99.90;;;;;;5067255;28;20032;-64
2021/08/07 02:35:35;;;;;;;5.00;1.95;;;14.70;99.90;;;;;;5077950;28;20572;-63
2021/08/07 02:38:02;;;;;;;4.72;2.63;;;14.60;99.90;;;;;;5066744;28;20024;-63
2021/08/07 02:40:28;;;;;;;3.38;2.00;;;14.60;99.90;;;;;;5067971;28;20375;-65
2021/08/07 02:42:55;;;;;;;10.68;2.90;;;14.70;99.90;;;;;;5074304;28;20449;-63
2021/08/07 02:45:21;;;;;;;4.20;2.35;;;14.70;99.90;;;;;;5065796;28;20024;-63
2021/08/07 02:47:47;;;;;;;3.92;1.80;;;14.70;99.90;;;;;;5045632;28;20052;-64
2021/08/07 02:50:14;;;;;;;4.15;2.33;;;14.80;99.90;;;;;;5073219;28;20375;-63
2021/08/07 02:52:40;;;;;;;8.18;2.55;;;14.80;99.90;;;;;;5063450;28;20020;-64
2021/08/07 02:55:06;;;;;;;5.93;2.40;;;14.80;99.90;;;;;;5069241;28;20027;-64
2021/08/07 02:57:32;;;;;;;3.72;1.90;;;14.70;99.90;;;;;;5072393;28;20012;-63
2021/08/07 02:59:59;;;;;;;7.22;1.92;;;14.70;99.90;;;;;;5043999;28;20020;-62
2021/08/07 03:02:25;;;;;;;5.45;2.20;;;14.60;99.90;;;;;;5071309;28;20024;-64
2021/08/07 03:04:50;;;;;;;12.25;3.63;;;14.50;99.90;;;;;;5073105;28;20099;-63
2021/08/07 03:07:16;;;;;;;12.82;2.35;;;14.40;99.90;;;;;;5049700;28;20559;-64
2021/08/07 03:09:42;;;;;;;2.95;1.60;;;14.30;99.90;;;;;;5078148;28;21729;-63
2021/08/07 03:12:08;;;;;;;4.28;2.20;;;14.30;99.90;;;;;;5070349;28;20020;-63
2021/08/07 03:14:34;;;;;;;5.78;2.20;;;14.20;99.90;;;;;;5082414;28;20043;-64
2021/08/07 03:16:59;;;;;;;6.60;2.20;;;14.20;99.90;;;;;;5065136;28;20108;-63
2021/08/07 03:19:25;;;;;;;4.97;2.10;;;14.20;99.90;;;;;;5064245;28;20545;-63
2021/08/07 03:21:50;;;;;;;6.15;2.53;;;14.20;99.90;;;;;;5073010;28;20029;-62
2021/08/07 03:24:16;;;;;;;17.88;2.25;;;14.20;99.90;;;;;;5062864;28;20036;-63
2021/08/07 03:26:41;;;;;;;3.60;1.80;;;14.20;99.90;;;;;;5067884;28;20028;-65
2021/08/07 03:29:07;;;;;;;3.90;1.83;;;14.20;99.90;;;;;;5061293;28;20029;-63
2021/08/07 03:31:33;;;;;;;3.63;2.13;;;14.30;99.90;;;;;;5044634;28;20060;-63
2021/08/07 03:33:58;;;;;;;6.75;2.00;;;14.30;99.90;;;;;;5059163;28;20031;-64
2021/08/07 03:36:24;;;;;;;3.65;1.98;;;14.30;99.90;;;;;;5077733;28;20029;-64
2021/08/07 03:38:49;;;;;;;6.63;2.17;;;14.30;99.90;;;;;;5068733;28;20040;-64
2021/08/07 03:41:15;;;;;;;6.43;2.33;;;14.30;99.90;;;;;;5065011;28;20052;-63
2021/08/07 03:43:40;;;;;;;5.35;2.28;;;14.30;99.90;;;;;;5073164;28;20028;-63
2021/08/07 03:46:06;;;;;;;7.68;2.05;;;14.20;99.90;;;;;;5052257;28;20079;-64
2021/08/07 03:48:31;;;;;;;7.07;2.42;;;14.20;99.90;;;;;;5062075;28;20037;-63
2021/08/07 03:50:57;;;;;;;4.70;2.22;;;14.10;99.90;;;;;;5083041;28;20031;-65
2021/08/07 03:53:23;;;;;;;5.03;3.58;;;14.20;99.90;;;;;;5058735;28;20501;-64
2021/08/07 03:55:48;;;;;;;5.63;2.90;;;14.20;99.90;;;;;;5066394;28;20095;-63
2021/08/07 03:58:14;;;;;;;2.67;1.92;;;14.20;99.90;;;;;;5068269;28;20518;-62
2021/08/07 04:00:39;;;;;;;6.97;2.17;;;14.20;99.90;;;;;;5068594;28;20028;-64
2021/08/07 04:03:05;;;;;;;5.20;2.10;;;14.20;99.90;;;;;;5076335;28;20073;-63
2021/08/07 04:05:31;;;;;;;3.10;1.75;;;14.30;99.90;;;;;;5068945;28;20108;-64
2021/08/07 04:08:10;;;;;;;3.78;1.83;;;14.30;99.90;;;;;;5057387;28;20372;-64
2021/08/07 04:10:37;;;;;;;6.47;1.98;;;14.30;99.90;;;;;;5067429;28;20505;-64
2021/08/07 04:13:04;;;;;;;11.73;3.40;;;14.40;99.90;;;;;;5051857;28;20032;-64
2021/08/07 04:15:30;;;;;;;12.10;2.28;;;14.40;99.90;;;;;;5074240;28;20029;-64
2021/08/07 04:17:55;;;;;;;3.40;1.63;;;14.50;99.90;;;;;;5062969;28;20029;-64
2021/08/07 04:20:21;;;;;;;2.78;1.77;;;14.50;99.90;;;;;;5064793;28;20051;-64
2021/08/07 04:22:46;;;;;;;4.13;1.90;;;14.50;99.90;;;;;;5071404;28;20029;-64
2021/08/07 04:25:12;;;;;;;3.78;1.52;;;14.50;99.90;;;;;;5055548;28;20146;-63
2021/08/07 04:27:38;;;;;;;10.43;2.20;;;14.60;99.90;;;;;;5063796;28;20146;-64
2021/08/07 04:30:06;;;;;;;3.63;1.88;;;14.60;99.90;;;;;;5070618;28;20033;-64
2021/08/07 04:32:32;;;;;;;13.77;2.67;;;14.70;99.90;;;;;;5050292;28;20039;-64
2021/08/07 04:34:57;;;;;;;4.22;2.13;;;14.80;99.90;;;;;;5042367;28;20028;-61
2021/08/07 04:37:23;;;;;;;2.83;2.00;;;14.80;99.90;;;;;;5069302;28;20498;-64
2021/08/07 04:39:49;;;;;;;6.97;1.88;;;14.90;99.90;;;;;;5053810;28;20059;-63
2021/08/07 04:42:15;;;;;;;3.08;1.77;;;14.90;99.90;;;;;;5060269;28;20087;-64
2021/08/07 04:44:40;;;;;;;5.40;2.33;;;14.90;99.90;;;;;;5072388;28;20028;-64
2021/08/07 04:47:06;;;;;;;4.40;1.50;;;15.00;99.90;;;;;;5067392;28;20024;-63
2021/08/07 04:49:33;;;;;;;3.47;1.70;;;15.00;99.90;;;;;;5066433;28;20035;-63
2021/08/07 04:51:59;;;;;;;4.45;2.10;;;15.10;99.90;;;;;;5071448;28;20040;-64
2021/08/07 04:54:24;;;;;;;4.90;1.58;;;15.10;99.90;;;;;;5060732;28;20021;-64
2021/08/07 04:56:50;;;;;;;5.72;1.58;;;15.10;99.90;;;;;;5048854;28;20020;-61
2021/08/07 04:59:15;;;;;;;5.68;1.98;;;15.20;99.90;;;;;;5076176;28;20035;-64
2021/08/07 05:01:41;;;;;;;3.75;2.20;;;15.20;99.90;;;;;;5069081;28;20059;-64
2021/08/07 05:04:07;;;;;;;4.80;1.83;;;15.30;99.90;;;;;;5056194;28;20034;-63
2021/08/07 05:06:32;;;;;;;2.60;1.40;;;15.40;99.90;;;;;;5068629;28;20025;-64
2021/08/07 05:08:58;;;;;;;3.35;1.40;;;15.40;99.90;;;;;;5059426;28;20023;-66
2021/08/07 05:11:24;;;;;;;5.07;1.88;;;15.50;99.90;;;;;;5074117;28;20020;-64
2021/08/07 05:13:49;;;;;;;7.78;2.17;;;15.50;99.90;;;;;;5066310;28;20024;-65
2021/08/07 05:16:15;;;;;;;3.05;1.55;;;15.60;99.90;;;;;;5063563;28;20053;-63
2021/08/07 05:18:40;;;;;;;7.20;1.63;;;15.70;99.90;;;;;;5057588;28;20406;-63
2021/08/07 05:21:06;;;;;;;5.45;1.80;;;15.70;99.90;;;;;;5070696;28;20040;-64
2021/08/07 05:23:31;;;;;;;4.30;1.05;;;15.80;99.90;;;;;;5072828;28;20028;-63
2021/08/07 05:25:57;;;;;;;1.92;1.73;;;15.90;99.90;;;;;;5063235;28;20395;-65
2021/08/07 05:28:22;;;;;;;3.70;1.50;;;15.90;99.90;;;;;;5060641;28;20475;-63
2021/08/07 05:30:48;;;;;;;2.50;1.10;;;16.00;99.90;;;;;;5066869;28;20029;-64
2021/08/07 05:33:13;;;;;;;3.63;1.40;;;16.00;99.90;;;;;;5044950;28;20041;-64
2021/08/07 05:35:39;;;;;;;5.32;1.50;;;16.20;99.90;;;;;;5049121;28;20021;-64
2021/08/07 05:38:04;;;;;;;3.42;1.40;;;16.30;99.90;;;;;;5063676;28;20032;-64
2021/08/07 05:40:30;;;;;;;2.67;1.60;;;16.40;99.90;;;;;;5049628;28;20036;-64
2021/08/07 05:42:56;;;;;;;1.98;1.40;;;16.50;99.90;;;;;;5068300;28;20081;-65
2021/08/07 05:45:21;;;;;;;6.25;1.80;;;16.60;99.90;;;;;;5084127;28;20043;-64
2021/08/07 05:47:47;;;;;;;2.33;1.50;;;16.80;99.90;;;;;;5064190;28;20037;-63
2021/08/07 05:50:13;;;;;;;5.70;1.73;;;16.90;99.90;;;;;;5070362;28;20039;-64
2021/08/07 05:52:39;;;;;;;3.22;1.20;;;16.90;99.90;;;;;;5065742;28;20036;-64
2021/08/07 05:55:06;;;;;;;5.28;1.92;;;17.00;99.90;;;;;;5067832;28;20017;-63
2021/08/07 05:57:31;;;;;;;2.97;1.48;;;17.00;99.90;;;;;;5057056;28;20024;-64
2021/08/07 05:59:57;;;;;;;4.35;1.65;;;17.00;99.90;;;;;;5055507;28;20116;-65
2021/08/07 06:02:22;;;;;;;4.55;1.48;;;17.00;99.90;;;;;;5075731;28;20028;-64
2021/08/07 06:04:48;;;;;;;2.92;1.15;;;17.00;99.90;;;;;;5076684;28;20016;-62
2021/08/07 06:07:14;;;;;;;4.10;1.13;;;17.00;99.90;;;;;;5072405;28;20052;-65
2021/08/07 06:09:39;;;;;;;5.07;1.20;;;17.10;99.90;;;;;;5071610;28;20024;-64
2021/08/07 06:12:05;;;;;;;3.75;1.38;;;17.10;99.90;;;;;;5054604;28;20108;-64
2021/08/07 06:14:31;;;;;;;3.92;1.30;;;17.00;99.90;;;;;;5075829;28;20028;-64
2021/08/07 06:16:56;;;;;;;4.25;1.50;;;17.10;99.90;;;;;;5072395;28;20021;-63
2021/08/07 06:19:22;;;;;;;2.33;1.10;;;17.10;99.90;;;;;;5085889;22;20044;-63
2021/08/07 06:21:47;;;;;;;3.13;1.35;;;17.10;99.90;;;;;;5074275;28;20072;-64
2021/08/07 06:24:13;;;;;;;4.93;1.48;;;17.10;99.90;;;;;;5071840;28;20029;-64
2021/08/07 06:26:39;;;;;;;4.10;1.45;;;17.20;99.90;;;;;;5081463;28;20367;-64
2021/08/07 06:29:05;;;;;;;6.38;1.65;;;17.20;99.90;;;;;;5080020;28;20512;-64
2021/08/07 06:31:31;;;;;;;5.15;1.67;;;17.40;99.90;;;;;;5077722;28;20071;-64
2021/08/07 06:33:57;;;;;;;4.10;1.33;;;17.40;99.90;;;;;;5066098;28;20044;-63
2021/08/07 06:36:23;;;;;;;3.17;1.20;;;17.50;99.90;;;;;;5085473;28;20598;-64
2021/08/07 06:38:50;;;;;;;2.65;1.13;;;17.70;99.90;;;;;;5067053;28;20041;-63
2021/08/07 06:41:16;;;;;;;3.22;1.15;;;18.00;99.90;;;;;;5068675;28;20102;-63
2021/08/07 06:43:41;;;;;;;3.17;1.08;;;18.20;99.90;;;;;;5072126;28;20490;-63
2021/08/07 06:46:07;;;;;;;4.85;1.40;;;18.40;99.90;;;;;;5074535;28;20031;-65
2021/08/07 06:48:33;;;;;;;8.95;1.23;;;18.70;99.90;;;;;;5072573;28;20029;-64
2021/08/07 06:50:58;;;;;;;2.38;1.15;;;19.00;99.90;;;;;;5080867;28;20424;-64
2021/08/07 06:53:24;;;;;;;2.33;1.10;;;19.40;99.90;;;;;;5077274;28;20031;-65
2021/08/07 06:55:49;;;;;;;3.53;1.15;;;19.70;99.90;;;;;;5068250;28;20487;-64
2021/08/07 06:58:15;;;;;;;2.78;0.90;;;20.10;99.90;;;;;;5081677;28;20412;-64
2021/08/07 07:00:41;;;;;;;4.10;1.17;;;20.30;99.90;;;;;;5080828;28;20024;-64
2021/08/07 07:03:07;;;;;;;4.25;0.90;;;20.70;99.90;;;;;;5077858;28;20033;-65
2021/08/07 07:05:34;;;;;;;3.97;1.35;;;21.40;99.90;;;;;;5076589;28;20098;-65
2021/08/07 07:08:00;;;;;;;7.32;1.42;;;22.00;99.90;;;;;;5070066;28;20101;-65
2021/08/07 07:10:27;;;;;;;5.80;1.70;;;22.00;99.90;;;;;;5069180;28;20402;-65
2021/08/07 07:12:53;;;;;;;4.03;1.48;;;21.90;99.90;;;;;;5073723;28;20081;-65
2021/08/07 07:15:19;;;;;;;8.35;1.58;;;21.80;99.90;;;;;;5070804;28;20028;-65
2021/08/07 07:17:44;;;;;;;6.28;1.40;;;21.70;99.90;;;;;;5076243;28;20070;-65
2021/08/07 07:20:11;;;;;;;5.15;1.58;;;21.60;99.90;;;;;;5083811;28;20094;-65
2021/08/07 07:22:37;;;;;;;5.65;1.30;;;21.30;99.90;;;;;;5081285;28;20020;-65
2021/08/07 07:25:04;;;;;;;2.40;1.20;;;20.90;99.90;;;;;;5062820;28;20036;-65
2021/08/07 07:27:30;;;;;;;4.97;1.42;;;20.50;99.90;;;;;;5070291;28;20048;-64
2021/08/07 07:29:56;;;;;;;4.45;1.73;;;20.30;99.90;;;;;;5078343;28;20055;-64
2021/08/07 07:32:22;;;;;;;7.28;1.60;;;19.90;99.90;;;;;;5054127;28;20121;-65
2021/08/07 07:34:48;;;;;;;6.15;1.40;;;20.00;99.90;;;;;;5073810;28;20024;-64
2021/08/07 07:37:13;;;;;;;8.05;1.98;;;20.00;99.90;;;;;;5072546;28;20028;-65
2021/08/07 07:39:40;;;;;;;8.25;1.60;;;20.00;99.90;;;;;;5066838;28;20501;-65
2021/08/07 07:42:06;;;;;;;3.60;1.30;;;20.00;99.90;;;;;;5062323;28;20040;-65
2021/08/07 07:44:31;;;;;;;6.43;1.90;;;20.20;99.90;;;;;;5072384;28;20477;-65
2021/08/07 07:46:57;;;;;;;7.13;1.42;;;20.50;99.90;;;;;;5062309;28;20092;-65
2021/08/07 07:49:23;;;;;;;5.38;1.58;;;20.80;99.90;;;;;;5071871;28;20491;-65
2021/08/07 07:51:49;;;;;;;4.43;1.60;;;20.90;99.90;;;;;;5079145;28;20051;-65
2021/08/07 07:54:14;;;;;;;8.90;1.73;;;21.60;99.90;;;;;;5057388;28;20029;-65
2021/08/07 07:56:40;;;;;;;6.35;1.90;;;22.40;99.90;;;;;;5077403;28;20051;-65
2021/08/07 07:59:06;;;;;;;7.85;1.70;;;22.90;99.90;;;;;;5071525;28;20090;-65
2021/08/07 08:01:31;;;;;;;5.63;1.40;;;22.90;99.90;;;;;;5069330;28;20032;-65
2021/08/07 08:03:57;;;;;;;6.72;1.65;;;22.60;99.90;;;;;;5078457;28;20154;-64
2021/08/07 08:06:22;;;;;;;6.65;1.33;;;22.00;99.90;;;;;;5074156;28;20067;-65
2021/08/07 08:08:48;;;;;;;7.82;1.67;;;21.80;99.90;;;;;;5070247;28;20052;-65
2021/08/07 08:11:14;;;;;;;3.50;1.27;;;21.70;99.90;;;;;;5061601;28;20085;-64
2021/08/07 08:13:39;;;;;;;5.32;1.45;;;21.80;99.90;;;;;;5063247;28;20037;-65
2021/08/07 08:16:07;;;;;;;3.88;1.50;;;23.00;99.90;;;;;;5075240;28;20027;-65
2021/08/07 08:18:32;;;;;;;7.63;1.50;;;24.00;99.40;;;;;;5074007;28;20035;-65
2021/08/07 08:20:58;;;;;;;6.22;1.48;;;25.40;97.80;;;;;;5080831;28;20021;-65
2021/08/07 08:23:23;;;;;;;6.32;1.42;;;26.60;97.30;;;;;;5070311;28;20031;-65
2021/08/07 08:25:49;;;;;;;8.23;1.73;;;25.90;95.00;;;;;;5069114;28;20118;-65
2021/08/07 08:28:16;;;;;;;3.25;1.30;;;26.20;95.00;;;;;;5075803;28;20032;-65
2021/08/07 08:30:42;;;;;;;5.85;1.50;;;26.70;94.40;;;;;;5069770;28;20044;-65
2021/08/07 08:33:08;;;;;;;6.68;1.60;;;26.20;94.10;;;;;;5054765;28;20047;-66
2021/08/07 08:35:34;;;;;;;4.57;1.35;;;26.30;94.50;;;;;;5069943;28;20025;-65
2021/08/07 08:37:59;;;;;;;4.75;1.13;;;26.90;93.20;;;;;;5069884;28;20043;-66
2021/08/07 08:40:25;;;;;;;5.38;1.60;;;26.90;93.70;;;;;;5069492;28;20032;-65
2021/08/07 08:42:52;;;;;;;4.85;1.20;;;27.50;93.00;;;;;;5069256;28;20036;-65
2021/08/07 08:45:18;;;;;;;8.32;2.00;;;27.80;91.70;;;;;;5076331;28;20027;-66
2021/08/07 08:47:44;;;;;;;4.95;1.40;;;28.00;91.30;;;;;;5066570;28;20032;-66
2021/08/07 08:50:11;;;;;;;7.50;1.25;;;28.00;92.50;;;;;;5059025;28;22720;-64
2021/08/07 08:52:39;;;;;;;3.67;1.30;;;27.70;91.10;;;;;;5069746;28;20025;-63
2021/08/07 08:55:07;;;;;;;5.55;1.45;;;27.50;90.90;;;;;;5081007;28;20064;-65
2021/08/07 08:57:33;;;;;;;3.83;1.38;;;27.10;90.90;;;;;;5063365;28;20430;-65
2021/08/07 08:59:59;;;;;;;6.10;1.70;;;27.70;91.70;;;;;;5077101;28;20035;-65
2021/08/07 09:02:24;;;;;;;7.53;1.85;;;28.40;91.40;;;;;;5067704;28;20036;-65
2021/08/07 09:04:50;;;;;;;5.30;1.42;;;29.00;88.60;;;;;;5068608;28;20032;-63
2021/08/07 09:07:16;;;;;;;6.97;1.75;;;29.70;90.50;;;;;;5070820;28;20032;-63
2021/08/07 09:09:51;;;;;;;5.80;1.63;;;29.00;86.00;;;;;;5067604;28;20090;-63
2021/08/07 09:12:17;;;;;;;5.28;1.50;;;28.30;88.10;;;;;;5066283;28;20025;-65
2021/08/07 09:14:52;;;;;;;7.38;1.70;;;27.40;87.70;;;;;;5068002;28;20391;-65
2021/08/07 09:17:21;;;;;;;5.82;1.48;;;27.40;90.30;;;;;;5064498;28;20091;-65
2021/08/07 09:19:48;;;;;;;6.70;1.60;;;27.20;91.10;;;;;;5064435;28;20491;-65
2021/08/07 09:22:21;;;;;;;4.55;1.48;;;26.80;91.20;;;;;;5067664;28;20445;-65
2021/08/07 09:25:00;;;;;;;7.45;1.40;;;26.40;91.00;;;;;;5069924;28;20027;-65
2021/08/07 09:27:29;;;;;;;5.43;1.63;;;26.00;91.70;;;;;;5064328;28;20094;-66
2021/08/07 09:29:55;;;;;;;4.78;1.45;;;25.70;91.60;;;;;;5069832;28;20043;-65
2021/08/07 09:32:21;;;;;;;3.40;1.50;;;25.50;92.60;;;;;;5047461;28;20036;-65
2021/08/07 09:35:09;;;;;;;7.50;1.45;;;24.90;92.80;;;;;;5069701;28;20027;-65
2021/08/07 09:37:35;;;;;;;5.05;1.60;;;24.60;93.20;;;;;;5066175;28;20391;-64
2021/08/07 09:40:03;;;;;;;5.95;2.33;;;24.40;93.50;;;;;;5068808;28;20036;-65
2021/08/07 09:42:31;;;;;;;4.07;1.23;;;24.10;93.80;;;;;;5069173;28;20024;-66
2021/08/07 09:45:11;;;;;;;3.80;1.48;;;23.80;94.60;;;;;;5066048;28;20493;-65
2021/08/07 09:47:55;;;;;;;5.35;1.40;;;23.90;95.60;;;;;;5066279;28;20032;-65
2021/08/07 09:50:22;;;;;;;3.92;1.38;;;23.70;95.60;;;;;;5043069;28;20056;-65
2021/08/07 09:52:48;;;;;;;5.38;1.40;;;23.80;94.90;;;;;;5069599;28;20017;-64
2021/08/07 09:55:14;;;;;;;7.40;1.90;;;23.80;96.50;;;;;;5080793;28;20051;-65
2021/08/07 09:57:40;;;;;;;9.25;1.90;;;23.80;94.80;;;;;;5068840;28;20414;-65
2021/08/07 10:00:06;;;;;;;4.25;1.20;;;23.70;94.80;;;;;;5068337;28;20074;-65
2021/08/07 10:02:36;;;;;;;3.90;1.40;;;24.00;94.00;;;;;;5069290;28;20075;-65
2021/08/07 10:05:08;;;;;;;15.88;2.55;;;24.20;95.10;;;;;;5069025;28;20028;-65
2021/08/07 10:07:37;;;;;;;4.47;1.20;;;24.20;94.20;;;;;;5066500;28;20020;-67
2021/08/07 10:10:22;;;;;;;6.25;1.25;;;24.40;93.70;;;;;;5071044;28;20111;-67
2021/08/07 10:12:48;;;;;;;4.75;1.30;;;24.40;93.70;;;;;;5068749;28;20032;-66
2021/08/07 10:15:13;;;;;;;7.68;1.73;;;25.00;93.50;;;;;;5067620;28;20418;-64
2021/08/07 10:17:41;;;;;;;3.22;1.45;;;25.00;92.30;;;;;;5066661;28;20596;-64
2021/08/07 10:20:08;;;;;;;7.32;1.48;;;25.10;93.10;;;;;;5069321;28;20119;-64
2021/08/07 10:22:33;;;;;;;5.93;1.58;;;24.90;91.30;;;;;;5078128;28;20502;-64
2021/08/07 10:25:04;;;;;;;5.38;1.40;;;24.40;92.10;;;;;;5067458;28;20036;-64
2021/08/07 10:27:32;;;;;;;3.42;1.10;;;24.20;93.10;;;;;;5062533;28;20037;-64
2021/08/07 10:30:00;;;;;;;3.00;1.00;;;24.00;91.60;;;;;;5068949;28;20051;-64
2021/08/07 10:32:28;;;;;;;3.20;1.10;;;24.20;92.20;;;;;;5052780;28;20070;-64
2021/08/07 10:34:54;;;;;;;8.25;1.25;;;24.60;92.40;;;;;;5073785;28;20039;-64
2021/08/07 10:37:20;;;;;;;5.38;1.33;;;24.50;91.60;;;;;;5071028;28;20024;-64
2021/08/07 10:39:47;;;;;;;2.95;0.90;;;23.90;91.80;;;;;;5073420;28;20428;-64
2021/08/07 10:42:15;;;;;;;2.60;1.20;;;23.70;91.80;;;;;;5072049;28;20031;-65
2021/08/07 10:44:44;;;;;;;2.92;1.20;;;23.40;91.90;;;;;;5071568;28;20057;-64
2021/08/07 10:47:10;;;;;;;5.70;1.40;;;23.50;92.80;;;;;;5071746;28;20036;-65
2021/08/07 10:49:37;;;;;;;7.90;1.33;;;23.40;92.10;;;;;;5073125;28;20549;-64
2021/08/07 10:52:26;;;;;;;5.00;0.95;;;23.00;92.60;;;;;;5042133;28;20498;-64
2021/08/07 10:54:54;;;;;;;2.63;1.35;;;23.10;94.20;;;;;;5067896;28;20037;-64
2021/08/07 10:57:38;;;;;;;4.68;1.20;;;23.20;94.20;;;;;;5068698;28;20509;-64
2021/08/07 11:00:15;;;;;;;4.95;1.10;;;22.90;93.40;;;;;;5069647;28;20025;-64
2021/08/07 11:02:41;;;;;;;2.70;0.95;;;22.80;93.90;;;;;;5073973;28;20029;-64
2021/08/07 11:05:07;;;;;;;5.90;1.17;;;22.60;93.90;;;;;;5072210;28;20115;-64
2021/08/07 11:07:34;;;;;;;1.98;0.70;;;22.50;94.20;;;;;;5070330;28;20107;-65
2021/08/07 11:10:06;;;;;;;5.95;1.95;;;22.30;94.70;;;;;;5072235;28;20455;-64
2021/08/07 11:12:33;;;;;;;5.43;1.33;;;22.20;94.10;;;;;;5071420;28;20063;-63
2021/08/07 11:15:05;;;;;;;5.60;1.50;;;22.30;94.60;;;;;;5074353;28;20028;-64
2021/08/07 11:17:34;;;;;;;3.28;0.93;;;22.30;95.60;;;;;;5070332;28;20492;-64
2021/08/07 11:20:18;;;;;;;3.58;1.20;;;22.40;95.80;;;;;;5071220;28;20120;-64
2021/08/07 11:22:44;;;;;;;3.85;1.20;;;22.10;97.40;;;;;;5073456;28;20032;-64
2021/08/07 11:25:21;;;;;;;7.47;1.73;;;21.70;97.90;;;;;;5092577;28;20024;-63
2021/08/07 11:27:48;;;;;;;5.03;1.23;;;21.10;99.50;;;;;;5076033;28;20395;-64
2021/08/07 11:30:29;;;;;;;8.43;1.48;;;20.80;99.90;;;;;;5070301;28;20293;-64
2021/08/07 11:32:58;;;;;;;2.40;1.00;;;20.10;99.90;;;;;;5035846;28;20040;-64
2021/08/07 11:38:12;;;;;;;2.45;1.23;;;19.80;99.90;;;;;;5071391;28;20458;-64
2021/08/07 11:41:08;;;;;;;3.92;1.23;;;19.70;99.90;;;;;;5070215;28;20151;-64
2021/08/07 11:43:40;;;;;;;6.38;1.63;;;19.70;99.90;;;;;;5058579;28;20039;-64
2021/08/07 11:46:10;;;;;;;4.10;1.30;;;19.60;99.90;;;;;;5071844;28;20066;-64
2021/08/07 11:48:39;;;;;;;3.67;1.17;;;19.60;99.90;;;;;;5071230;28;20107;-64
2021/08/07 11:51:21;;;;;;;3.88;1.42;;;19.50;99.90;;;;;;5054553;28;20048;-64
2021/08/07 11:53:47;;;;;;;2.47;1.00;;;19.40;99.90;;;;;;5067165;28;20036;-64
2021/08/07 11:56:18;;;;;;;1.90;0.82;;;19.50;99.90;;;;;;5071420;28;20402;-64
2021/08/07 11:58:48;;;;;;;4.05;1.00;;;19.50;99.90;;;;;;5070967;28;20043;-64
2021/08/07 12:01:14;;;;;;;3.20;1.20;;;19.40;99.90;;;;;;5071621;28;20036;-64
2021/08/07 12:03:45;;;;;;;3.22;1.10;;;19.40;99.90;;;;;;5066354;28;20051;-64
2021/08/07 12:06:13;;;;;;;4.47;1.23;;;19.50;99.90;;;;;;5071292;28;20044;-64
2021/08/07 12:08:39;;;;;;;4.97;1.10;;;19.60;99.90;;;;;;5070450;28;20557;-65
2021/08/07 12:11:07;;;;;;;4.57;1.20;;;19.80;99.90;;;;;;5071740;28;20063;-64
2021/08/07 12:13:42;;;;;;;6.13;1.33;;;20.20;99.90;;;;;;5069240;28;20524;-64
2021/08/07 12:16:16;;;;;;;6.47;1.00;;;20.50;99.90;;;;;;5071680;28;20145;-64
2021/08/07 12:18:42;;;;;;;5.72;1.00;;;21.10;99.90;;;;;;5067069;28;20072;-64
2021/08/07 12:21:10;;;;;;;5.20;1.08;;;21.20;99.20;;;;;;5071230;28;20486;-64
2021/08/07 12:23:47;;;;;;;4.63;0.80;;;21.50;99.30;;;;;;5070520;28;20078;-64
2021/08/07 12:26:14;;;;;;;2.25;0.80;;;21.60;99.90;;;;;;5060463;28;20032;-65
2021/08/07 12:28:40;;;;;;;3.17;1.10;;;21.80;98.90;;;;;;5069994;28;20029;-65
2021/08/07 12:31:05;;;;;;;2.28;0.85;;;21.90;99.10;;;;;;5065724;28;20409;-64
2021/08/07 12:33:43;;;;;;;5.22;1.20;;;22.10;98.10;;;;;;5060695;28;20036;-64
2021/08/07 12:36:20;;;;;;;2.15;0.68;;;22.40;97.50;;;;;;5075496;28;20480;-65
2021/08/07 12:38:51;;;;;;;4.18;1.08;;;22.80;97.80;;;;;;5069855;28;20024;-64
2021/08/07 12:41:22;;;;;;;4.05;1.08;;;23.20;97.10;;;;;;5078677;28;20036;-64
2021/08/07 12:43:49;;;;;;;5.70;0.85;;;23.10;97.00;;;;;;5085670;28;20128;-65
2021/08/07 12:46:19;;;;;;;2.38;0.70;;;23.10;96.60;;;;;;5088153;28;20035;-64
2021/08/07 12:48:56;;;;;;;1.60;0.80;;;23.00;95.80;;;;;;5075024;28;20557;-64
2021/08/07 12:51:30;;;;;;;2.95;1.00;;;22.90;95.90;;;;;;5034516;28;20041;-65